createdAt,value
2018-09-17T00:00:34.175Z,34.10
2018-09-17T00:03:03.645Z,34.30
2018-09-17T00:05:34.643Z,41.80
2018-09-17T00:08:04.016Z,48.03
2018-09-17T00:10:33.536Z,48.03
2018-09-17T00:13:04.142Z,41.97
2018-09-17T00:15:34.184Z,60.03
2018-09-17T00:18:05.402Z,58.60
2018-09-17T00:20:35.066Z,51.97
2018-09-17T00:23:04.584Z,47.90
2018-09-17T00:25:34.767Z,50.40
2018-09-17T00:28:04.504Z,48.50
2018-09-17T00:30:34.087Z,41.13
2018-09-17T00:33:03.784Z,47.87
2018-09-17T00:35:33.608Z,36.63
2018-09-17T00:38:04.110Z,35.63
2018-09-17T00:40:39.972Z,37.80
2018-09-17T00:43:14.332Z,40.67
2018-09-17T00:45:43.904Z,40.67
2018-09-17T00:48:13.612Z,30.53
2018-09-17T00:50:47.500Z,42.53
2018-09-17T00:53:23.942Z,38.27
2018-09-17T00:55:53.368Z,45.47
2018-09-17T00:58:23.031Z,58.87
2018-09-17T01:00:52.700Z,48.33
2018-09-17T01:03:23.084Z,46.30
2018-09-17T01:05:53.241Z,46.37
2018-09-17T01:08:23.395Z,35.37
2018-09-17T01:10:52.907Z,39.63
2018-09-17T01:13:23.151Z,29.43
2018-09-17T01:15:52.734Z,38.00
2018-09-17T01:18:22.281Z,36.17
2018-09-17T01:20:54.463Z,32.20
2018-09-17T01:23:25.543Z,36.70
2018-09-17T01:25:55.145Z,56.90
2018-09-17T01:28:24.621Z,49.27
2018-09-17T01:30:54.301Z,36.70
2018-09-17T01:33:24.987Z,39.90
2018-09-17T01:35:54.538Z,51.77
2018-09-17T01:38:26.005Z,45.97
2018-09-17T01:40:55.569Z,41.40
2018-09-17T01:43:30.073Z,35.80
2018-09-17T01:45:59.957Z,34.00
2018-09-17T01:48:29.576Z,40.20
2018-09-17T01:50:59.285Z,30.07
2018-09-17T01:53:28.956Z,33.93
2018-09-17T01:55:58.720Z,36.43
2018-09-17T01:58:28.353Z,49.30
2018-09-17T02:00:58.096Z,36.07
2018-09-17T02:03:27.705Z,38.23
2018-09-17T02:05:57.281Z,41.10
2018-09-17T02:08:27.807Z,52.90
2018-09-17T02:11:02.675Z,55.87
2018-09-17T02:13:39.104Z,54.60
2018-09-17T02:16:08.776Z,57.50
2018-09-17T02:18:39.489Z,53.93
2018-09-17T02:21:11.777Z,55.00
2018-09-17T02:23:41.779Z,54.40
2018-09-17T02:26:14.837Z,54.87
2018-09-17T02:28:49.900Z,55.30
2018-09-17T02:31:19.730Z,31.90
2018-09-17T02:33:49.513Z,33.60
2018-09-17T02:36:19.178Z,27.00
2018-09-17T02:38:49.405Z,22.80
2018-09-17T02:41:19.581Z,29.50
2018-09-17T02:43:49.388Z,26.80
2018-09-17T02:46:19.231Z,33.03
2018-09-17T02:48:49.055Z,20.77
2018-09-17T02:51:27.324Z,20.70
2018-09-17T02:53:57.153Z,18.77
2018-09-17T02:56:27.862Z,25.37
2018-09-17T02:58:57.643Z,13.90
2018-09-17T03:01:33.043Z,18.77
2018-09-17T03:04:02.653Z,27.17
2018-09-17T03:06:32.343Z,33.87
2018-09-17T03:09:01.900Z,42.03
2018-09-17T03:11:31.481Z,47.80
2018-09-17T03:14:01.756Z,46.97
2018-09-17T03:16:31.512Z,55.87
2018-09-17T03:19:01.084Z,59.40
2018-09-17T03:21:30.800Z,65.97
2018-09-17T03:24:00.381Z,35.80
2018-09-17T03:26:30.370Z,37.10
2018-09-17T03:29:01.994Z,29.53
2018-09-17T03:31:31.735Z,24.80
2018-09-17T03:34:01.473Z,19.30
2018-09-17T03:36:31.361Z,23.33
2018-09-17T03:39:01.165Z,20.57
2018-09-17T03:41:30.624Z,27.40
2018-09-17T03:44:00.585Z,25.10
2018-09-17T03:46:30.906Z,28.57
2018-09-17T03:49:00.672Z,31.37
2018-09-17T03:51:30.342Z,35.27
2018-09-17T03:54:00.235Z,38.33
2018-09-17T03:56:36.781Z,32.80
2018-09-17T03:59:06.474Z,33.00
2018-09-17T04:01:36.190Z,43.30
2018-09-17T04:04:05.666Z,40.17
2018-09-17T04:06:35.311Z,46.87
2018-09-17T04:09:07.483Z,37.00
2018-09-17T04:11:37.870Z,36.40
2018-09-17T04:14:08.979Z,36.83
2018-09-17T04:16:39.179Z,31.23
2018-09-17T04:19:11.395Z,25.37
2018-09-17T04:21:41.269Z,21.37
2018-09-17T04:24:12.326Z,16.97
2018-09-17T04:26:41.879Z,18.67
2018-09-17T04:29:11.624Z,19.27
2018-09-17T04:31:41.392Z,18.77
2018-09-17T04:34:14.036Z,16.10
2018-09-17T04:36:43.645Z,19.53
2018-09-17T04:39:14.948Z,21.77
2018-09-17T04:41:45.282Z,20.50
2018-09-17T04:44:15.583Z,20.77
2018-09-17T04:46:50.004Z,23.20
2018-09-17T04:49:20.346Z,20.70
2018-09-17T04:51:50.553Z,21.83
2018-09-17T04:54:22.267Z,22.10
2018-09-17T04:56:52.078Z,23.63
2018-09-17T04:59:21.876Z,17.53
2018-09-17T05:01:51.610Z,22.40
2018-09-17T05:04:21.247Z,31.23
2018-09-17T05:06:51.060Z,22.80
2018-09-17T05:09:22.697Z,23.07
2018-09-17T05:11:52.672Z,30.43
2018-09-17T05:14:22.339Z,21.83
2018-09-17T05:16:51.840Z,26.90
2018-09-17T05:19:21.590Z,27.87
2018-09-17T05:21:52.225Z,32.10
2018-09-17T05:24:22.197Z,38.00
2018-09-17T05:26:51.800Z,63.20
2018-09-17T05:29:21.518Z,102.20
2018-09-17T05:31:51.325Z,107.10
2018-09-17T05:34:21.483Z,94.13
2018-09-17T05:36:51.516Z,76.07
2018-09-17T05:39:21.077Z,65.63
2018-09-17T05:41:50.651Z,100.30
2018-09-17T05:44:22.186Z,68.73
2018-09-17T05:46:51.792Z,57.37
2018-09-17T05:49:21.482Z,45.33
2018-09-17T05:51:51.202Z,62.57
2018-09-17T05:54:21.559Z,42.20
2018-09-17T05:56:52.184Z,57.83
2018-09-17T05:59:22.378Z,45.87
2018-09-17T06:01:52.773Z,95.00
2018-09-17T06:04:22.666Z,85.87
2018-09-17T06:06:53.356Z,112.97
2018-09-17T06:09:23.807Z,111.43
2018-09-17T06:11:53.447Z,119.50
2018-09-17T06:14:23.387Z,115.20
2018-09-17T06:16:53.698Z,128.83
2018-09-17T06:19:23.580Z,116.83
2018-09-17T06:21:53.293Z,124.13
2018-09-17T06:24:24.854Z,119.10
2018-09-17T06:26:54.403Z,121.30
2018-09-17T06:29:24.132Z,109.33
2018-09-17T06:31:54.708Z,113.23
2018-09-17T06:34:24.557Z,111.80
2018-09-17T06:39:24.592Z,108.20
2018-09-17T06:41:54.937Z,92.73
2018-09-17T06:44:24.667Z,91.67
2018-09-17T06:46:59.057Z,89.10
2018-09-17T06:49:28.679Z,102.83
2018-09-17T06:51:59.095Z,83.77
2018-09-17T06:54:29.345Z,85.67
2018-09-17T06:56:58.956Z,89.07
2018-09-17T06:59:29.803Z,96.40
2018-09-17T07:02:00.748Z,78.47
2018-09-17T07:04:30.439Z,83.10
2018-09-17T07:07:01.403Z,91.67
2018-09-17T07:09:35.543Z,81.33
2018-09-17T07:12:05.328Z,77.60
2018-09-17T07:14:35.238Z,91.40
2018-09-17T07:17:05.068Z,74.77
2018-09-17T07:19:34.786Z,86.40
2018-09-17T07:22:04.378Z,78.20
2018-09-17T07:24:34.590Z,79.97
2018-09-17T07:27:04.801Z,72.00
2018-09-17T07:29:35.485Z,69.50
2018-09-17T07:32:04.972Z,67.33
2018-09-17T07:34:34.980Z,54.47
2018-09-17T07:37:04.694Z,50.77
2018-09-17T07:39:34.255Z,47.13
2018-09-17T07:42:04.289Z,40.80
2018-09-17T07:44:33.892Z,37.23
2018-09-17T07:47:04.103Z,32.37
2018-09-17T07:49:33.615Z,34.43
2018-09-17T07:52:03.167Z,34.60
2018-09-17T07:54:32.799Z,24.40
2018-09-17T07:57:02.342Z,23.97
2018-09-17T07:59:33.549Z,24.30
2018-09-17T08:02:03.033Z,18.33
2018-09-17T08:04:32.668Z,18.97
2018-09-17T08:07:02.255Z,16.53
2018-09-17T08:09:32.219Z,19.03
2018-09-17T08:12:01.767Z,14.50
2018-09-17T08:14:31.397Z,12.80
2018-09-17T08:17:01.597Z,15.37
2018-09-17T08:19:32.238Z,12.83
2018-09-17T08:22:01.912Z,12.30
2018-09-17T08:24:31.778Z,12.70
2018-09-17T08:27:01.393Z,13.33
2018-09-17T08:29:31.098Z,12.90
2018-09-17T08:32:01.664Z,12.33
2018-09-17T08:34:31.129Z,12.47
2018-09-17T08:37:01.728Z,13.43
2018-09-17T08:39:31.168Z,11.63
2018-09-17T08:42:01.468Z,10.60
2018-09-17T08:44:31.247Z,13.57
2018-09-17T08:47:01.640Z,10.63
2018-09-17T08:49:31.557Z,10.47
2018-09-17T08:52:01.072Z,9.90
2018-09-17T08:54:30.932Z,9.20
2018-09-17T08:57:00.508Z,9.70
2018-09-17T08:59:35.805Z,8.93
2018-09-17T09:02:10.592Z,8.90
2018-09-17T09:04:50.736Z,9.77
2018-09-17T09:07:26.060Z,8.90
2018-09-17T09:10:01.378Z,10.83
2018-09-17T09:12:36.564Z,8.90
2018-09-17T09:15:11.399Z,8.60
2018-09-17T09:17:41.262Z,7.67
2018-09-17T09:20:11.091Z,9.00
2018-09-17T09:22:40.555Z,9.43
2018-09-17T09:25:10.247Z,8.73
2018-09-17T09:27:40.697Z,6.63
2018-09-17T09:30:11.027Z,7.33
2018-09-17T09:32:40.796Z,7.87
2018-09-17T09:35:10.991Z,9.07
2018-09-17T09:37:41.441Z,9.37
2018-09-17T09:40:11.090Z,8.47
2018-09-17T09:42:40.934Z,6.63
2018-09-17T09:45:10.793Z,8.67
2018-09-17T09:47:40.968Z,7.20
2018-09-17T09:50:14.448Z,6.43
2018-09-17T09:52:51.080Z,6.57
2018-09-17T09:55:20.883Z,6.07
2018-09-17T09:57:50.631Z,5.87
2018-09-17T10:00:25.485Z,5.23
2018-09-17T10:03:05.917Z,5.50
2018-09-17T10:05:36.067Z,5.80
2018-09-17T10:08:05.823Z,10.63
2018-09-17T10:10:40.490Z,7.00
2018-09-17T10:13:15.125Z,5.17
2018-09-17T10:15:50.844Z,4.80
2018-09-17T10:18:25.970Z,4.97
2018-09-17T10:20:56.161Z,5.53
2018-09-17T10:23:25.714Z,5.73
2018-09-17T10:25:55.612Z,5.03
2018-09-17T10:28:25.389Z,6.93
2018-09-17T10:30:55.052Z,4.10
2018-09-17T10:33:25.592Z,4.53
2018-09-17T10:35:55.678Z,4.30
2018-09-17T10:38:26.202Z,3.97
2018-09-17T10:40:56.816Z,4.97
2018-09-17T10:43:26.547Z,4.47
2018-09-17T10:45:56.622Z,3.87
2018-09-17T10:48:26.689Z,4.27
2018-09-17T10:50:57.073Z,4.60
2018-09-17T10:53:26.650Z,6.00
2018-09-17T10:55:56.805Z,3.17
2018-09-17T10:58:26.959Z,4.70
2018-09-17T11:00:56.463Z,3.60
2018-09-17T11:03:26.168Z,4.93
2018-09-17T11:05:55.634Z,3.60
2018-09-17T11:08:25.635Z,3.60
2018-09-17T11:10:56.009Z,3.83
2018-09-17T11:13:26.085Z,6.23
2018-09-17T11:15:56.459Z,4.17
2018-09-17T11:18:25.928Z,5.77
2018-09-17T11:20:55.692Z,4.00
2018-09-17T11:23:29.104Z,3.73
2018-09-17T11:26:02.998Z,3.63
2018-09-17T11:28:32.455Z,3.60
2018-09-17T11:31:02.141Z,3.77
2018-09-17T11:33:32.596Z,4.10
2018-09-17T11:36:02.035Z,3.73
2018-09-17T11:38:32.798Z,4.97
2018-09-17T11:41:02.270Z,3.93
2018-09-17T11:43:31.744Z,3.83
2018-09-17T11:46:01.438Z,6.40
2018-09-17T11:48:30.968Z,4.33
2018-09-17T11:51:00.904Z,3.87
2018-09-17T11:53:31.468Z,4.47
2018-09-17T11:56:01.371Z,4.60
2018-09-17T11:58:30.922Z,4.87
2018-09-17T12:01:05.692Z,5.40
2018-09-17T12:03:40.893Z,4.47
2018-09-17T12:06:11.051Z,4.10
2018-09-17T12:08:40.857Z,8.27
2018-09-17T12:11:11.149Z,4.20
2018-09-17T12:13:41.295Z,4.40
2018-09-17T12:16:11.691Z,10.73
2018-09-17T12:18:41.879Z,4.37
2018-09-17T12:21:11.525Z,4.27
2018-09-17T12:23:41.320Z,4.00
2018-09-17T12:26:10.830Z,4.63
2018-09-17T12:28:40.977Z,5.63
2018-09-17T12:31:11.870Z,10.40
2018-09-17T12:33:42.362Z,4.83
2018-09-17T12:36:12.118Z,4.23
2018-09-17T12:38:41.605Z,5.23
2018-09-17T12:41:12.094Z,4.80
2018-09-17T12:43:42.006Z,9.87
2018-09-17T12:46:14.819Z,4.70
2018-09-17T12:48:44.597Z,4.10
2018-09-17T12:51:14.200Z,4.87
2018-09-17T12:53:43.740Z,4.73
2018-09-17T12:56:13.976Z,5.37
2018-09-17T12:58:43.527Z,4.30
2018-09-17T13:01:13.717Z,4.70
2018-09-17T13:03:43.885Z,6.47
2018-09-17T13:06:13.684Z,6.10
2018-09-17T13:08:43.806Z,4.47
2018-09-17T13:11:14.135Z,4.13
2018-09-17T13:13:44.465Z,6.23
2018-09-17T13:16:14.021Z,5.83
2018-09-17T13:18:43.731Z,7.03
2018-09-17T13:21:14.139Z,6.50
2018-09-17T13:23:44.836Z,4.63
2018-09-17T13:26:14.507Z,4.80
2018-09-17T13:28:44.330Z,4.67
2018-09-17T13:31:13.961Z,4.90
2018-09-17T13:33:44.559Z,4.27
2018-09-17T13:36:15.723Z,5.37
2018-09-17T13:38:46.303Z,5.17
2018-09-17T13:41:17.407Z,4.70
2018-09-17T13:43:47.304Z,4.80
2018-09-17T13:46:16.886Z,5.50
2018-09-17T13:48:47.568Z,4.63
2018-09-17T13:51:18.632Z,4.50
2018-09-17T13:53:48.603Z,4.40
2018-09-17T13:56:18.217Z,8.43
2018-09-17T13:58:47.884Z,4.67
2018-09-17T14:01:17.565Z,5.60
2018-09-17T14:03:47.354Z,4.00
2018-09-17T14:06:16.902Z,6.57
2018-09-17T14:08:46.674Z,5.87
2018-09-17T14:11:16.190Z,6.00
2018-09-17T14:13:46.019Z,4.70
2018-09-17T14:16:19.778Z,7.23
2018-09-17T14:18:50.228Z,6.13
2018-09-17T14:21:20.447Z,6.67
2018-09-17T14:23:55.598Z,5.33
2018-09-17T14:26:26.796Z,5.93
2018-09-17T14:28:57.627Z,6.00
2018-09-17T14:31:33.350Z,4.60
2018-09-17T14:34:02.855Z,4.77
2018-09-17T14:36:32.548Z,5.33
2018-09-17T14:39:02.044Z,4.57
2018-09-17T14:41:32.266Z,4.43
2018-09-17T14:44:01.991Z,4.83
2018-09-17T14:46:33.247Z,4.57
2018-09-17T14:49:03.371Z,4.43
2018-09-17T14:51:33.440Z,4.93
2018-09-17T14:54:03.208Z,6.23
2018-09-17T14:56:34.932Z,4.73
2018-09-17T14:59:05.273Z,5.97
2018-09-17T15:01:35.048Z,4.60
2018-09-17T15:04:04.759Z,5.00
2018-09-17T15:06:34.489Z,5.70
2018-09-17T15:09:05.060Z,4.53
2018-09-17T15:11:35.612Z,7.37
2018-09-17T15:14:06.643Z,3.97
2018-09-17T15:16:37.740Z,4.33
2018-09-17T15:19:08.094Z,5.67
2018-09-17T15:21:41.221Z,4.50
2018-09-17T15:24:12.016Z,4.20
2018-09-17T15:26:42.906Z,4.47
2018-09-17T15:29:12.649Z,4.63
2018-09-17T15:31:42.993Z,5.83
2018-09-17T15:34:12.788Z,6.13
2018-09-17T15:36:43.336Z,4.40
2018-09-17T15:39:14.216Z,4.30
2018-09-17T15:41:44.424Z,4.37
2018-09-17T15:44:15.056Z,5.13
2018-09-17T15:46:44.891Z,7.20
2018-09-17T15:49:14.539Z,8.43
2018-09-17T15:51:44.093Z,5.97
2018-09-17T15:54:14.457Z,5.37
2018-09-17T15:56:43.963Z,6.47
2018-09-17T15:59:13.592Z,8.57
2018-09-17T16:01:43.909Z,4.87
2018-09-17T16:04:14.338Z,4.13
2018-09-17T16:06:44.805Z,5.27
2018-09-17T16:09:14.393Z,7.20
2018-09-17T16:11:44.947Z,5.70
2018-09-17T16:14:15.337Z,7.00
2018-09-17T16:16:44.852Z,7.27
2018-09-17T16:19:15.683Z,9.80
2018-09-17T16:21:49.591Z,6.10
2018-09-17T16:24:19.826Z,7.53
2018-09-17T16:26:49.479Z,5.33
2018-09-17T16:29:19.169Z,10.43
2018-09-17T16:31:50.588Z,6.43
2018-09-17T16:34:20.932Z,7.57
2018-09-17T16:36:55.600Z,9.50
2018-09-17T16:39:26.445Z,5.87
2018-09-17T16:41:56.090Z,11.40
2018-09-17T16:44:26.485Z,10.83
2018-09-17T16:46:56.380Z,12.80
2018-09-17T16:49:26.736Z,8.53
2018-09-17T16:51:58.913Z,8.60
2018-09-17T16:54:28.691Z,11.00
2018-09-17T16:56:58.527Z,7.73
2018-09-17T16:59:29.173Z,5.50
2018-09-17T17:01:59.748Z,8.40
2018-09-17T17:04:29.551Z,6.37
2018-09-17T17:06:59.485Z,5.40
2018-09-17T17:09:29.174Z,6.10
2018-09-17T17:12:00.039Z,7.17
2018-09-17T17:14:30.703Z,7.50
2018-09-17T17:17:00.345Z,6.40
2018-09-17T17:19:30.759Z,8.83
2018-09-17T17:22:00.256Z,9.53
2018-09-17T17:24:30.474Z,8.53
2018-09-17T17:27:00.297Z,6.20
2018-09-17T17:29:30.036Z,7.03
2018-09-17T17:31:59.704Z,13.77
2018-09-17T17:34:29.382Z,8.10
2018-09-17T17:37:07.782Z,8.83
2018-09-17T17:39:38.484Z,7.53
2018-09-17T17:42:08.192Z,9.87
2018-09-17T17:44:38.518Z,7.57
2018-09-17T17:47:08.910Z,15.03
2018-09-17T17:49:38.628Z,9.90
2018-09-17T17:52:08.261Z,7.43
2018-09-17T17:54:39.481Z,6.20
2018-09-17T17:57:09.059Z,11.40
2018-09-17T17:59:38.804Z,11.43
2018-09-17T18:02:09.340Z,6.33
2018-09-17T18:05:00.979Z,5.97
2018-09-17T18:07:32.901Z,12.60
2018-09-17T18:10:12.452Z,11.17
2018-09-17T18:12:51.437Z,9.20
2018-09-17T18:15:21.318Z,12.73
2018-09-17T18:17:54.841Z,13.40
2018-09-17T18:20:25.280Z,6.80
2018-09-17T18:22:55.590Z,7.77
2018-09-17T18:25:26.725Z,15.83
2018-09-17T18:27:56.443Z,8.17
2018-09-17T18:30:26.134Z,13.73
2018-09-17T18:32:57.089Z,10.37
2018-09-17T18:35:27.745Z,8.67
2018-09-17T18:38:02.776Z,9.23
2018-09-17T18:40:33.397Z,6.97
2018-09-17T18:43:04.708Z,7.90
2018-09-17T18:45:34.285Z,8.70
2018-09-17T18:48:08.370Z,7.33
2018-09-17T18:50:37.941Z,9.70
2018-09-17T18:53:07.765Z,6.90
2018-09-17T18:55:37.293Z,6.97
2018-09-17T18:58:08.118Z,11.63
2018-09-17T19:00:38.380Z,6.00
2018-09-17T19:03:15.131Z,8.80
2018-09-17T19:05:44.973Z,13.20
2018-09-17T19:08:15.908Z,8.47
2018-09-17T19:10:45.963Z,7.87
2018-09-17T19:13:16.146Z,11.67
2018-09-17T19:15:52.139Z,6.60
2018-09-17T19:18:21.979Z,10.20
2018-09-17T19:20:53.208Z,6.87
2018-09-17T19:23:28.653Z,9.73
2018-09-17T19:25:58.389Z,8.63
2018-09-17T19:28:33.926Z,6.83
2018-09-17T19:31:03.866Z,8.07
2018-09-17T19:33:33.720Z,10.33
2018-09-17T19:36:06.796Z,8.00
2018-09-17T19:39:43.423Z,7.20
2018-09-17T19:42:14.579Z,7.70
2018-09-17T19:44:49.901Z,10.47
2018-09-17T19:47:24.775Z,6.57
2018-09-17T19:49:55.342Z,13.97
2018-09-17T19:52:25.589Z,6.77
2018-09-17T19:54:55.303Z,11.80
2018-09-17T19:57:30.207Z,9.60
2018-09-17T20:00:00.380Z,8.53
2018-09-17T20:02:30.381Z,11.40
2018-09-17T20:05:05.554Z,17.93
2018-09-17T20:07:35.095Z,9.30
2018-09-17T20:10:04.923Z,9.13
2018-09-17T20:12:34.413Z,7.13
2018-09-17T20:15:03.843Z,10.63
2018-09-17T20:17:33.565Z,10.37
2018-09-17T20:20:03.929Z,11.03
2018-09-17T20:22:33.695Z,8.67
2018-09-17T20:25:03.682Z,13.00
2018-09-17T20:27:33.241Z,12.53
2018-09-17T20:30:03.565Z,10.87
2018-09-17T20:32:34.915Z,9.10
2018-09-17T20:35:04.998Z,12.87
2018-09-17T20:37:35.276Z,12.60
2018-09-17T20:40:04.975Z,13.03
2018-09-17T20:42:35.870Z,10.40
2018-09-17T20:45:05.531Z,11.50
2018-09-17T20:47:36.073Z,9.67
2018-09-17T20:50:06.009Z,10.73
2018-09-17T20:52:36.860Z,12.60
2018-09-17T20:55:06.440Z,11.00
2018-09-17T20:57:36.695Z,11.80
2018-09-17T21:00:06.436Z,10.90
2018-09-17T21:02:37.129Z,10.03
2018-09-17T21:05:06.962Z,14.80
2018-09-17T21:07:37.011Z,13.43
2018-09-17T21:10:06.782Z,10.20
2018-09-17T21:12:37.818Z,11.00
2018-09-17T21:15:07.459Z,8.43
2018-09-17T21:17:37.379Z,10.13
2018-09-17T21:20:07.435Z,13.90
2018-09-17T21:22:37.147Z,14.77
2018-09-17T21:25:06.965Z,9.83
2018-09-17T21:27:36.605Z,12.73
2018-09-17T21:30:06.855Z,9.87
2018-09-17T21:32:36.303Z,16.87
2018-09-17T21:35:06.200Z,7.23
2018-09-17T21:37:35.944Z,10.73
2018-09-17T21:40:05.728Z,13.77
2018-09-17T21:42:35.265Z,12.27
2018-09-17T21:45:06.229Z,9.10
2018-09-17T21:47:35.943Z,11.20
2018-09-17T21:50:06.345Z,12.37
2018-09-17T21:52:37.187Z,11.50
2018-09-17T21:55:06.755Z,10.03
2018-09-17T21:57:36.933Z,15.90
2018-09-17T22:00:07.312Z,13.83
2018-09-17T22:02:37.224Z,9.97
2018-09-17T22:05:07.162Z,7.30
2018-09-17T22:07:37.392Z,8.60
2018-09-17T22:10:07.168Z,11.33
2018-09-17T22:12:36.916Z,7.67
2018-09-17T22:15:06.572Z,9.87
2018-09-17T22:17:36.225Z,7.83
2018-09-17T22:20:05.944Z,11.67
2018-09-17T22:22:36.518Z,20.33
2018-09-17T22:25:06.052Z,10.60
2018-09-17T22:27:35.427Z,6.90
2018-09-17T22:30:05.237Z,9.60
2018-09-17T22:32:34.772Z,15.90
2018-09-17T22:35:05.002Z,12.80
2018-09-17T22:37:34.515Z,14.50
2018-09-17T22:40:04.277Z,13.43
2018-09-17T22:42:34.449Z,10.93
2018-09-17T22:45:03.945Z,14.27
2018-09-17T22:47:33.705Z,8.13
2018-09-17T22:50:04.624Z,10.40
2018-09-17T22:52:34.129Z,10.07
2018-09-17T22:55:04.337Z,9.60
2018-09-17T22:57:33.844Z,8.80
2018-09-17T23:00:03.425Z,9.67
2018-09-17T23:02:33.051Z,9.87
2018-09-17T23:05:02.619Z,12.37
2018-09-17T23:07:32.007Z,12.07
2018-09-17T23:10:01.586Z,10.77
2018-09-17T23:12:31.455Z,14.23
2018-09-17T23:15:01.949Z,8.67
2018-09-17T23:17:31.637Z,9.67
2018-09-17T23:20:01.259Z,7.33
2018-09-17T23:22:30.834Z,9.43
2018-09-17T23:25:00.418Z,12.70
2018-09-17T23:27:30.160Z,11.13
2018-09-17T23:29:59.945Z,15.63
2018-09-17T23:32:29.512Z,10.60
2018-09-17T23:34:58.994Z,14.60
2018-09-17T23:37:28.548Z,9.73
2018-09-17T23:39:58.230Z,9.93
2018-09-17T23:42:28.502Z,9.13
2018-09-17T23:44:59.739Z,16.30
2018-09-17T23:47:29.336Z,11.00
2018-09-17T23:49:59.414Z,12.93
2018-09-17T23:52:29.138Z,13.70
2018-09-17T23:54:58.604Z,9.57
2018-09-17T23:57:33.378Z,13.07
